Cranbury, New Jersey
Current Conditions -  °F | °C
As of 12:53 AM on Sunday 26 Oct 2014 (Local Time) from KTTN Reporting Station
Overcast Overcast  
Wind Chill: 14°   Ceiling: 9500
Heat Index: 14°   Visibility: 10mi
Dew Point:   Wind: 0mph
Humidity: 60%   Direction: NA
Pressure: 29.59"   Gusts: NA
Location:  40.32°N, 74.51°W
Report Text: KTTN 260453Z AUTO 00000KT 10SM FEW055 OVC095 14/07 A2959 RMK AO2 SLP013 T01440067 402000039
Loading
Personal Weather Stations






























Interactive Weather Map
Tropical Storm Tracking
New forecast layout! Learn more

10-Day Weather Forecast

Advertisements
Track Severe Weather on mobile